createdAt,value
2018-05-09T00:00:35.600Z,78.20
2018-05-09T00:03:01.642Z,74.81
2018-05-09T00:05:28.024Z,77.53
2018-05-09T00:07:54.039Z,80.08
2018-05-09T00:10:20.156Z,79.73
2018-05-09T00:12:46.210Z,78.89
2018-05-09T00:15:12.237Z,79.56
2018-05-09T00:17:38.232Z,76.86
2018-05-09T00:20:04.386Z,76.87
2018-05-09T00:22:30.551Z,79.02
2018-05-09T00:24:56.548Z,79.87
2018-05-09T00:27:22.550Z,77.21
2018-05-09T00:29:48.655Z,76.27
2018-05-09T00:32:14.723Z,76.36
2018-05-09T00:34:40.728Z,79.64
2018-05-09T00:37:06.744Z,75.94
2018-05-09T00:39:32.797Z,76.13
2018-05-09T00:41:59.068Z,79.42
2018-05-09T00:44:25.080Z,78.77
2018-05-09T00:46:51.094Z,77.65
2018-05-09T00:49:17.172Z,76.43
2018-05-09T00:51:43.264Z,76.22
2018-05-09T00:54:21.363Z,77.91
2018-05-09T00:56:47.363Z,75.99
2018-05-09T00:59:13.375Z,74.86
2018-05-09T01:01:39.374Z,76.21
2018-05-09T01:04:05.391Z,74.76
2018-05-09T01:06:31.372Z,78.04
2018-05-09T01:08:57.373Z,73.93
2018-05-09T01:11:23.420Z,73.74
2018-05-09T01:13:49.405Z,74.17
2018-05-09T01:16:15.400Z,75.48
2018-05-09T01:18:41.433Z,74.26
2018-05-09T01:21:07.425Z,73.54
2018-05-09T01:23:33.460Z,74.12
2018-05-09T01:25:59.464Z,73.83
2018-05-09T01:28:25.477Z,73.92
2018-05-09T01:30:51.464Z,73.76
2018-05-09T01:33:17.455Z,73.82
2018-05-09T01:35:43.478Z,73.59
2018-05-09T01:38:09.561Z,74.73
2018-05-09T01:40:35.558Z,72.28
2018-05-09T01:43:02.176Z,72.21
2018-05-09T01:45:28.284Z,73.05
2018-05-09T01:47:54.394Z,72.27
2018-05-09T01:50:20.448Z,71.96
2018-05-09T01:52:46.547Z,72.15
2018-05-09T01:55:12.688Z,72.35
2018-05-09T01:57:38.869Z,71.22
2018-05-09T02:00:04.873Z,70.95
2018-05-09T02:02:30.970Z,70.60
2018-05-09T02:04:57.815Z,70.88
2018-05-09T02:07:23.924Z,70.44
2018-05-09T02:09:49.944Z,70.60
2018-05-09T02:12:16.084Z,71.87
2018-05-09T02:14:42.160Z,70.29
2018-05-09T02:17:08.250Z,70.91
2018-05-09T02:19:34.260Z,71.74
2018-05-09T02:22:00.269Z,71.16
2018-05-09T02:24:26.377Z,71.93
2018-05-09T02:26:52.444Z,72.60
2018-05-09T02:29:18.476Z,71.93
2018-05-09T02:31:44.480Z,73.61
2018-05-09T02:34:10.599Z,71.80
2018-05-09T02:36:36.640Z,72.75
2018-05-09T02:39:02.717Z,71.91
2018-05-09T02:41:28.705Z,71.10
2018-05-09T02:43:54.864Z,71.66
2018-05-09T02:46:21.024Z,72.27
2018-05-09T02:48:47.047Z,73.34
2018-05-09T02:51:13.187Z,73.83
2018-05-09T02:53:39.195Z,73.20
2018-05-09T02:56:05.217Z,73.08
2018-05-09T02:58:31.233Z,73.31
2018-05-09T03:00:57.253Z,72.07
2018-05-09T03:03:23.265Z,73.05
2018-05-09T03:05:49.693Z,73.38
2018-05-09T03:08:15.691Z,74.15
2018-05-09T03:10:41.691Z,74.43
2018-05-09T03:13:08.441Z,75.21
2018-05-09T03:15:34.562Z,72.98
2018-05-09T03:18:00.588Z,73.23
2018-05-09T03:20:26.605Z,73.65
2018-05-09T03:22:52.669Z,74.13
2018-05-09T03:25:18.926Z,73.51
2018-05-09T03:27:44.995Z,73.68
2018-05-09T03:30:11.024Z,78.33
2018-05-09T03:32:37.055Z,76.72
2018-05-09T03:35:03.132Z,75.70
2018-05-09T03:37:29.177Z,78.14
2018-05-09T03:39:55.201Z,76.61
2018-05-09T03:42:21.189Z,75.37
2018-05-09T03:44:47.212Z,77.07
2018-05-09T03:47:13.248Z,76.77
2018-05-09T03:49:39.279Z,75.81
2018-05-09T03:52:05.321Z,77.35
2018-05-09T03:54:31.352Z,77.33
2018-05-09T03:56:57.378Z,79.99
2018-05-09T03:59:23.395Z,77.87
2018-05-09T04:02:01.567Z,79.19
2018-05-09T04:04:39.757Z,78.35
2018-05-09T04:07:17.944Z,78.29
2018-05-09T04:09:59.837Z,77.85
2018-05-09T04:12:25.900Z,78.47
2018-05-09T04:14:52.084Z,78.37
2018-05-09T04:17:18.044Z,81.95
2018-05-09T04:19:44.105Z,78.79
2018-05-09T04:22:10.197Z,79.25
2018-05-09T04:24:36.257Z,79.87
2018-05-09T04:27:02.261Z,81.73
2018-05-09T04:29:28.988Z,81.20
2018-05-09T04:31:55.010Z,82.03
2018-05-09T04:34:21.154Z,79.50
2018-05-09T04:36:47.173Z,81.20
2018-05-09T04:39:13.284Z,78.95
2018-05-09T04:41:39.659Z,78.70
2018-05-09T04:44:05.695Z,82.17
2018-05-09T04:46:31.723Z,79.59
2018-05-09T04:48:58.098Z,80.59
2018-05-09T04:51:24.120Z,78.01
2018-05-09T04:53:50.180Z,78.67
2018-05-09T04:56:16.195Z,82.17
2018-05-09T04:58:42.407Z,77.87
2018-05-09T05:01:08.408Z,78.94
2018-05-09T05:03:34.480Z,78.35
2018-05-09T05:06:00.607Z,81.29
2018-05-09T05:08:26.716Z,78.64
2018-05-09T05:10:52.991Z,79.31
2018-05-09T05:13:20.967Z,78.69
2018-05-09T05:15:47.691Z,77.58
2018-05-09T05:18:14.096Z,77.96
2018-05-09T05:20:40.286Z,78.03
2018-05-09T05:23:06.670Z,77.30
2018-05-09T05:25:33.842Z,76.59
2018-05-09T05:27:59.979Z,75.69
2018-05-09T05:30:27.392Z,76.32
2018-05-09T05:32:54.997Z,75.49
2018-05-09T05:35:21.005Z,74.95
2018-05-09T05:37:47.028Z,77.10
2018-05-09T05:40:13.296Z,76.84
2018-05-09T05:42:39.405Z,75.79
2018-05-09T05:45:05.591Z,76.02
2018-05-09T05:47:32.272Z,74.32
2018-05-09T05:49:58.377Z,74.43
2018-05-09T05:52:24.644Z,75.41
2018-05-09T05:54:50.828Z,74.99
2018-05-09T05:57:16.997Z,75.56
2018-05-09T05:59:43.010Z,75.44
2018-05-09T06:02:09.037Z,75.84
2018-05-09T06:04:35.053Z,75.91
2018-05-09T06:07:01.198Z,76.64
2018-05-09T06:09:27.173Z,76.04
2018-05-09T06:11:53.197Z,76.14
2018-05-09T06:14:19.233Z,75.66
2018-05-09T06:16:45.268Z,76.18
2018-05-09T06:19:11.312Z,74.54
2018-05-09T06:21:37.320Z,74.49
2018-05-09T06:24:03.461Z,73.91
2018-05-09T06:26:29.371Z,73.94
2018-05-09T06:28:55.385Z,73.34
2018-05-09T06:31:21.398Z,72.49
2018-05-09T06:33:47.430Z,71.99
2018-05-09T06:36:13.461Z,71.94
2018-05-09T06:38:39.497Z,71.61
2018-05-09T06:41:05.521Z,71.56
2018-05-09T06:43:31.575Z,70.70
2018-05-09T06:45:57.599Z,70.52
2018-05-09T06:48:23.628Z,70.06
2018-05-09T06:50:49.654Z,71.10
2018-05-09T06:53:15.739Z,69.58
2018-05-09T06:55:41.792Z,68.87
2018-05-09T06:58:07.798Z,69.11
2018-05-09T07:00:33.849Z,68.05
2018-05-09T07:02:59.893Z,67.98
2018-05-09T07:05:25.913Z,67.72
2018-05-09T07:07:51.920Z,66.71
2018-05-09T07:10:17.949Z,65.92
2018-05-09T07:12:44.674Z,65.78
2018-05-09T07:15:10.773Z,66.36
2018-05-09T07:17:36.854Z,64.73
2018-05-09T07:20:02.973Z,63.86
2018-05-09T07:22:28.974Z,62.54
2018-05-09T07:24:55.005Z,61.40
2018-05-09T07:27:21.684Z,60.73
2018-05-09T07:29:47.760Z,60.27
2018-05-09T07:32:13.793Z,59.97
2018-05-09T07:34:39.815Z,58.57
2018-05-09T07:37:05.806Z,57.82
2018-05-09T07:39:31.800Z,57.43
2018-05-09T07:41:57.823Z,56.54
2018-05-09T07:44:23.868Z,56.32
2018-05-09T07:46:49.971Z,55.53
2018-05-09T07:49:16.010Z,53.55
2018-05-09T07:51:42.132Z,53.63
2018-05-09T07:54:08.205Z,53.17
2018-05-09T07:56:34.433Z,51.58
2018-05-09T07:59:00.461Z,51.72
2018-05-09T08:01:26.540Z,50.89
2018-05-09T08:03:52.899Z,49.58
2018-05-09T08:06:19.028Z,50.52
2018-05-09T08:08:45.143Z,51.09
2018-05-09T08:11:11.185Z,51.81
2018-05-09T08:13:37.201Z,52.26
2018-05-09T08:16:04.253Z,52.90
2018-05-09T08:18:30.272Z,52.03
2018-05-09T08:20:56.377Z,51.16
2018-05-09T08:23:22.417Z,49.22
2018-05-09T08:25:48.428Z,49.18
2018-05-09T08:28:14.561Z,49.58
2018-05-09T08:30:40.624Z,50.12
2018-05-09T08:33:07.114Z,50.75
2018-05-09T08:35:33.136Z,50.78
2018-05-09T08:37:59.242Z,51.13
2018-05-09T08:40:25.275Z,51.78
2018-05-09T08:42:51.329Z,51.71
2018-05-09T08:45:17.416Z,51.72
2018-05-09T08:47:43.488Z,51.83
2018-05-09T08:50:09.528Z,51.28
2018-05-09T08:52:35.551Z,51.00
2018-05-09T08:55:01.604Z,50.96
2018-05-09T08:57:27.637Z,50.49
2018-05-09T08:59:53.654Z,50.15
2018-05-09T09:02:19.699Z,50.27
2018-05-09T09:04:45.711Z,49.82
2018-05-09T09:07:11.739Z,51.70
2018-05-09T09:09:37.789Z,51.84
2018-05-09T09:12:03.803Z,52.48
2018-05-09T09:14:30.013Z,54.47
2018-05-09T09:16:56.077Z,56.70
2018-05-09T09:19:22.280Z,58.03
2018-05-09T09:21:48.400Z,57.69
2018-05-09T09:24:14.590Z,58.41
2018-05-09T09:26:40.712Z,57.94
2018-05-09T09:29:06.831Z,58.41
2018-05-09T09:31:32.820Z,58.38
2018-05-09T09:33:58.833Z,57.84
2018-05-09T09:36:25.186Z,58.24
2018-05-09T09:38:51.189Z,58.01
2018-05-09T09:41:17.465Z,58.75
2018-05-09T09:43:43.501Z,58.34
2018-05-09T09:46:09.521Z,59.28
2018-05-09T09:48:35.540Z,59.87
2018-05-09T09:51:01.648Z,58.74
2018-05-09T09:53:27.679Z,57.21
2018-05-09T09:55:53.731Z,57.11
2018-05-09T09:58:19.737Z,56.25
2018-05-09T10:00:45.818Z,56.56
2018-05-09T10:03:11.870Z,55.68
2018-05-09T10:05:37.896Z,53.84
2018-05-09T10:08:04.017Z,51.97
2018-05-09T10:10:29.976Z,50.17
2018-05-09T10:12:55.976Z,49.66
2018-05-09T10:15:21.988Z,49.19
2018-05-09T10:17:48.154Z,49.32
2018-05-09T10:20:14.300Z,49.24
2018-05-09T10:22:40.455Z,49.47
2018-05-09T10:25:06.680Z,48.43
2018-05-09T10:27:32.819Z,47.82
2018-05-09T10:29:58.827Z,45.68
2018-05-09T10:32:24.891Z,43.59
2018-05-09T10:34:51.928Z,44.18
2018-05-09T10:37:17.933Z,44.47
2018-05-09T10:39:44.027Z,42.33
2018-05-09T10:42:10.421Z,41.72
2018-05-09T10:44:36.490Z,42.64
2018-05-09T10:47:03.166Z,42.95
2018-05-09T10:49:29.169Z,45.23
2018-05-09T10:51:55.214Z,43.36
2018-05-09T10:54:21.232Z,41.86
2018-05-09T10:56:47.257Z,41.05
2018-05-09T10:59:13.600Z,40.14
2018-05-09T11:01:39.999Z,38.27
2018-05-09T11:04:06.321Z,38.86
2018-05-09T11:06:32.907Z,39.47
2018-05-09T11:08:58.931Z,37.62
2018-05-09T11:11:25.023Z,37.56
2018-05-09T11:13:51.142Z,37.02
2018-05-09T11:16:17.310Z,37.40
2018-05-09T11:18:43.320Z,35.94
2018-05-09T11:21:09.419Z,38.28
2018-05-09T11:23:35.409Z,38.03
2018-05-09T11:26:01.454Z,40.38
2018-05-09T11:28:27.488Z,39.75
2018-05-09T11:30:53.575Z,37.51
2018-05-09T11:33:19.799Z,37.44
2018-05-09T11:35:45.860Z,36.83
2018-05-09T11:38:12.324Z,38.26
2018-05-09T11:40:38.320Z,36.95
2018-05-09T11:43:04.473Z,35.25
2018-05-09T11:45:30.555Z,34.35
2018-05-09T11:47:56.582Z,34.40
2018-05-09T11:50:22.601Z,33.92
2018-05-09T11:52:49.284Z,33.55
2018-05-09T11:55:15.333Z,32.39
2018-05-09T11:57:41.414Z,32.81
2018-05-09T12:00:07.440Z,33.50
2018-05-09T12:02:33.547Z,32.58
2018-05-09T12:04:59.605Z,32.63
2018-05-09T12:07:25.617Z,32.10
2018-05-09T12:09:51.615Z,32.02
2018-05-09T12:12:17.668Z,30.86
2018-05-09T12:14:43.661Z,31.20
2018-05-09T12:17:09.675Z,31.20
2018-05-09T12:19:35.785Z,30.25
2018-05-09T12:22:01.840Z,30.45
2018-05-09T12:24:28.535Z,30.92
2018-05-09T12:26:54.583Z,30.99
2018-05-09T12:29:20.632Z,30.53
2018-05-09T12:31:46.682Z,29.68
2018-05-09T12:34:12.738Z,30.12
2018-05-09T12:36:38.862Z,30.21
2018-05-09T12:39:04.889Z,31.71
2018-05-09T12:41:30.978Z,29.04
2018-05-09T12:43:57.106Z,28.41
2018-05-09T12:46:23.100Z,28.59
2018-05-09T12:48:49.148Z,27.16
2018-05-09T12:51:15.148Z,28.80
2018-05-09T12:53:41.326Z,30.27
2018-05-09T12:56:07.424Z,28.00
2018-05-09T12:58:33.466Z,28.44
2018-05-09T13:00:59.558Z,29.11
2018-05-09T13:03:26.229Z,29.17
2018-05-09T13:05:52.459Z,29.92
2018-05-09T13:08:18.586Z,28.82
2018-05-09T13:10:44.640Z,29.55
2018-05-09T13:13:10.830Z,28.70
2018-05-09T13:15:36.848Z,28.23
2018-05-09T13:18:03.120Z,27.50
2018-05-09T13:20:29.142Z,28.06
2018-05-09T13:22:55.207Z,28.42
2018-05-09T13:25:21.288Z,28.51
2018-05-09T13:27:47.490Z,28.29
2018-05-09T13:30:13.576Z,28.30
2018-05-09T13:32:39.671Z,28.87
2018-05-09T13:35:05.861Z,28.40
2018-05-09T13:37:32.592Z,28.51
2018-05-09T13:39:58.781Z,28.65
2018-05-09T13:42:24.830Z,28.77
2018-05-09T13:44:50.899Z,29.12
2018-05-09T13:47:16.963Z,28.30
2018-05-09T13:49:43.147Z,28.83
2018-05-09T13:52:09.192Z,28.11
2018-05-09T13:54:35.299Z,27.84
2018-05-09T13:57:01.357Z,29.72
2018-05-09T13:59:27.401Z,28.00
2018-05-09T14:01:53.437Z,29.62
2018-05-09T14:04:19.446Z,29.83
2018-05-09T14:06:45.470Z,28.88
2018-05-09T14:09:11.545Z,28.94
2018-05-09T14:11:37.644Z,29.77
2018-05-09T14:14:03.663Z,31.17
2018-05-09T14:16:29.686Z,29.37
2018-05-09T14:18:55.772Z,29.45
2018-05-09T14:21:21.917Z,29.63
2018-05-09T14:23:48.133Z,29.82
2018-05-09T14:26:14.361Z,29.11
2018-05-09T14:28:40.520Z,29.80
2018-05-09T14:31:06.517Z,30.10
2018-05-09T14:33:32.729Z,30.50
2018-05-09T14:35:58.809Z,29.60
2018-05-09T14:38:24.872Z,30.06
2018-05-09T14:40:50.932Z,30.89
2018-05-09T14:43:16.951Z,30.64
2018-05-09T14:45:43.150Z,31.39
2018-05-09T14:48:09.178Z,31.61
2018-05-09T14:50:35.255Z,32.04
2018-05-09T14:53:01.380Z,32.49
2018-05-09T14:55:27.445Z,30.96
2018-05-09T14:57:53.534Z,31.06
2018-05-09T15:00:19.837Z,31.66
2018-05-09T15:02:45.797Z,31.53
2018-05-09T15:05:11.835Z,31.25
2018-05-09T15:07:37.829Z,31.29
2018-05-09T15:10:03.830Z,31.25
2018-05-09T15:12:29.836Z,32.03
2018-05-09T15:14:55.908Z,33.43
2018-05-09T15:17:22.056Z,34.73
2018-05-09T15:19:48.156Z,35.02
2018-05-09T15:22:14.297Z,34.70
2018-05-09T15:24:41.243Z,33.52
2018-05-09T15:27:07.255Z,35.04
2018-05-09T15:29:33.301Z,35.31
2018-05-09T15:31:59.325Z,35.37
2018-05-09T15:34:25.361Z,34.10
2018-05-09T15:36:51.397Z,33.92
2018-05-09T15:39:17.430Z,33.11
2018-05-09T15:41:43.484Z,34.04
2018-05-09T15:44:09.491Z,32.10
2018-05-09T15:46:36.796Z,33.25
2018-05-09T15:49:04.321Z,33.80
2018-05-09T15:51:30.640Z,34.32
2018-05-09T15:53:56.673Z,33.80
2018-05-09T15:56:22.825Z,34.40
2018-05-09T15:58:48.922Z,34.80
2018-05-09T16:01:15.085Z,33.59
2018-05-09T16:03:41.172Z,32.11
2018-05-09T16:06:07.492Z,33.02
2018-05-09T16:08:33.524Z,32.06
2018-05-09T16:10:59.545Z,32.55
2018-05-09T16:13:25.624Z,33.78
2018-05-09T16:15:51.621Z,35.92
2018-05-09T16:18:17.619Z,36.98
2018-05-09T16:20:43.661Z,40.09
2018-05-09T16:23:09.725Z,40.16
2018-05-09T16:25:35.729Z,41.50
2018-05-09T16:28:01.751Z,41.71
2018-05-09T16:30:27.862Z,43.19
2018-05-09T16:32:53.884Z,44.21
2018-05-09T16:35:19.928Z,45.35
2018-05-09T16:37:46.024Z,44.98
2018-05-09T16:40:12.047Z,46.28
2018-05-09T16:42:38.080Z,45.93
2018-05-09T16:45:04.101Z,47.85
2018-05-09T16:47:30.133Z,46.65
2018-05-09T16:49:56.174Z,47.84
2018-05-09T16:52:22.206Z,48.42
2018-05-09T16:54:48.233Z,48.95
2018-05-09T16:57:14.252Z,48.35
2018-05-09T16:59:41.122Z,48.49
2018-05-09T17:02:07.132Z,49.69
2018-05-09T17:04:33.145Z,49.97
2018-05-09T17:06:59.235Z,50.44
2018-05-09T17:09:25.244Z,50.21
2018-05-09T17:11:51.281Z,51.25
2018-05-09T17:14:17.390Z,52.21
2018-05-09T17:16:43.431Z,52.01
2018-05-09T17:19:09.491Z,52.66
2018-05-09T17:21:39.272Z,52.56
2018-05-09T17:24:05.391Z,52.66
2018-05-09T17:26:31.444Z,52.90
2018-05-09T17:28:57.546Z,53.10
2018-05-09T17:31:23.563Z,53.85
2018-05-09T17:33:49.564Z,54.76
2018-05-09T17:36:15.679Z,54.72
2018-05-09T17:38:41.708Z,55.44
2018-05-09T17:41:07.752Z,54.47
2018-05-09T17:43:33.752Z,55.20
2018-05-09T17:45:59.782Z,55.90
2018-05-09T17:48:25.848Z,55.93
2018-05-09T17:50:51.958Z,55.36
2018-05-09T17:53:17.957Z,56.00
2018-05-09T17:55:44.021Z,56.13
2018-05-09T17:58:10.038Z,56.57
2018-05-09T18:00:36.066Z,56.47
2018-05-09T18:03:02.099Z,56.40
2018-05-09T18:05:28.187Z,56.15
2018-05-09T18:07:54.233Z,57.24
2018-05-09T18:10:20.878Z,57.47
2018-05-09T18:12:46.973Z,57.02
2018-05-09T18:15:13.012Z,57.26
2018-05-09T18:17:45.813Z,57.33
2018-05-09T18:20:11.930Z,58.84
2018-05-09T18:22:38.015Z,58.42
2018-05-09T18:25:04.412Z,59.43
2018-05-09T18:27:30.506Z,58.72
2018-05-09T18:29:56.575Z,58.94
2018-05-09T18:32:22.607Z,60.48
2018-05-09T18:34:48.695Z,59.69
2018-05-09T18:37:14.826Z,58.97
2018-05-09T18:39:40.929Z,60.17
2018-05-09T18:42:06.958Z,61.82
2018-05-09T18:44:33.065Z,63.38
2018-05-09T18:46:59.186Z,62.55
2018-05-09T18:49:25.274Z,62.99
2018-05-09T18:51:51.305Z,62.95
2018-05-09T18:54:17.343Z,62.22
2018-05-09T18:56:43.411Z,64.01
2018-05-09T18:59:09.411Z,63.66
2018-05-09T19:01:35.461Z,62.81
2018-05-09T19:04:01.477Z,64.21
2018-05-09T19:06:27.545Z,64.72
2018-05-09T19:08:53.541Z,65.67
2018-05-09T19:11:19.627Z,66.02
2018-05-09T19:13:45.672Z,65.88
2018-05-09T19:16:11.731Z,67.49
2018-05-09T19:18:37.783Z,67.48
2018-05-09T19:21:03.858Z,66.48
2018-05-09T19:23:29.937Z,66.22
2018-05-09T19:25:56.127Z,68.72
2018-05-09T19:28:22.173Z,64.98
2018-05-09T19:30:48.264Z,68.52
2018-05-09T19:33:14.342Z,66.86
2018-05-09T19:35:40.408Z,69.01
2018-05-09T19:38:06.535Z,70.08
2018-05-09T19:40:32.658Z,68.99
2018-05-09T19:42:58.671Z,67.53
2018-05-09T19:45:24.816Z,67.97
2018-05-09T19:47:50.911Z,67.79
2018-05-09T19:50:17.919Z,70.90
2018-05-09T19:52:44.643Z,70.42
2018-05-09T19:55:10.776Z,69.99
2018-05-09T19:57:37.277Z,71.53
2018-05-09T20:00:03.424Z,72.24
2018-05-09T20:02:29.510Z,74.21
2018-05-09T20:04:55.569Z,74.48
2018-05-09T20:07:21.636Z,75.10
2018-05-09T20:09:47.704Z,74.53
2018-05-09T20:12:13.780Z,75.13
2018-05-09T20:14:39.797Z,76.10
2018-05-09T20:17:06.165Z,76.19
2018-05-09T20:19:32.621Z,77.20
2018-05-09T20:21:58.929Z,77.31
2018-05-09T20:24:25.112Z,76.05
2018-05-09T20:26:51.144Z,77.31
2018-05-09T20:29:17.168Z,77.60
2018-05-09T20:31:56.957Z,77.63
2018-05-09T20:34:23.043Z,77.67
2018-05-09T20:36:49.074Z,78.99
2018-05-09T20:39:15.198Z,77.58
2018-05-09T20:41:41.400Z,79.05
2018-05-09T20:44:07.435Z,78.88
2018-05-09T20:46:33.502Z,78.38
2018-05-09T20:48:59.566Z,77.93
2018-05-09T20:51:37.764Z,78.36
2018-05-09T20:54:03.798Z,79.22
2018-05-09T20:56:29.853Z,79.74
2018-05-09T20:58:55.922Z,79.23
2018-05-09T21:01:34.714Z,80.82
2018-05-09T21:04:00.906Z,79.47
2018-05-09T21:06:26.978Z,80.54
2018-05-09T21:08:52.997Z,81.25
2018-05-09T21:11:19.055Z,80.79
2018-05-09T21:13:45.158Z,80.27
2018-05-09T21:16:11.176Z,80.10
2018-05-09T21:18:37.252Z,80.08
2018-05-09T21:21:03.273Z,81.65
2018-05-09T21:23:29.400Z,81.99
2018-05-09T21:25:55.449Z,80.70
2018-05-09T21:28:21.498Z,81.61
2018-05-09T21:30:47.539Z,82.37
2018-05-09T21:33:13.597Z,80.58
2018-05-09T21:35:39.597Z,81.06
2018-05-09T21:38:05.589Z,80.18
2018-05-09T21:40:31.704Z,81.16
2018-05-09T21:42:57.749Z,82.08
2018-05-09T21:45:23.749Z,82.72
2018-05-09T21:47:57.022Z,82.40
2018-05-09T21:50:23.049Z,82.00
2018-05-09T21:52:49.099Z,83.01
2018-05-09T21:55:15.181Z,83.27
2018-05-09T21:57:41.198Z,82.28
2018-05-09T22:00:07.234Z,83.21
2018-05-09T22:02:33.303Z,81.79
2018-05-09T22:04:59.393Z,82.88
2018-05-09T22:07:25.616Z,82.08
2018-05-09T22:09:51.626Z,82.74
2018-05-09T22:12:17.638Z,83.12
2018-05-09T22:14:44.795Z,83.67
2018-05-09T22:17:10.852Z,83.76
2018-05-09T22:19:37.689Z,83.73
2018-05-09T22:22:03.699Z,83.27
2018-05-09T22:24:29.748Z,83.57
2018-05-09T22:26:55.967Z,83.66
2018-05-09T22:29:22.029Z,84.77
2018-05-09T22:31:48.062Z,84.36
2018-05-09T22:34:14.124Z,84.31
2018-05-09T22:36:40.161Z,85.27
2018-05-09T22:39:06.389Z,85.22
2018-05-09T22:41:32.500Z,85.40
2018-05-09T22:43:58.612Z,85.04
2018-05-09T22:46:24.640Z,84.87
2018-05-09T22:48:51.292Z,85.11
2018-05-09T22:51:17.524Z,85.07
2018-05-09T22:53:43.556Z,84.88
2018-05-09T22:56:09.658Z,84.12
2018-05-09T22:58:35.723Z,83.64
2018-05-09T23:01:01.807Z,82.95
2018-05-09T23:03:27.834Z,82.54
2018-05-09T23:05:53.862Z,82.27
2018-05-09T23:08:19.897Z,81.90
2018-05-09T23:10:45.897Z,81.78
2018-05-09T23:13:11.899Z,81.42
2018-05-09T23:15:37.990Z,81.29
2018-05-09T23:18:03.993Z,81.55
2018-05-09T23:20:29.983Z,81.69
2018-05-09T23:22:55.992Z,81.38
2018-05-09T23:25:22.000Z,80.22
2018-05-09T23:27:48.032Z,81.62
2018-05-09T23:30:14.081Z,81.00
2018-05-09T23:32:40.102Z,81.81
2018-05-09T23:35:06.101Z,80.60
2018-05-09T23:37:32.117Z,80.83
2018-05-09T23:39:58.128Z,81.31
2018-05-09T23:42:24.160Z,82.01
2018-05-09T23:44:50.216Z,82.20
2018-05-09T23:47:16.819Z,82.06
2018-05-09T23:49:42.990Z,82.46
2018-05-09T23:52:09.087Z,81.79
2018-05-09T23:54:35.097Z,81.60
2018-05-09T23:57:01.409Z,81.79
2018-05-09T23:59:27.513Z,82.21
